createdAt,value
2022-08-17T00:00:43.957Z,16.56
2022-08-17T00:01:45.534Z,16.67
2022-08-17T00:02:48.638Z,16.58
2022-08-17T00:03:45.315Z,16.60
2022-08-17T00:04:31.800Z,16.48
2022-08-17T00:05:40.488Z,16.49
2022-08-17T00:06:32.998Z,16.45
2022-08-17T00:07:42.640Z,16.43
2022-08-17T00:08:40.557Z,16.41
2022-08-17T00:09:46.587Z,16.31
2022-08-17T00:13:35.293Z,16.35
2022-08-17T00:17:46.522Z,16.28
2022-08-17T00:22:33.811Z,16.30
2022-08-17T00:24:19.487Z,16.21
2022-08-17T00:27:49.242Z,16.07
2022-08-17T00:28:50.119Z,16.14
2022-08-17T00:33:15.012Z,16.04
2022-08-17T00:36:45.015Z,16.00
2022-08-17T00:40:44.649Z,15.97
2022-08-17T00:43:37.208Z,15.84
2022-08-17T00:44:48.698Z,15.78
2022-08-17T00:48:30.868Z,15.76
2022-08-17T00:52:25.989Z,15.68
2022-08-17T00:53:34.626Z,15.72
2022-08-17T00:54:25.877Z,15.67
2022-08-17T00:55:46.045Z,15.65
2022-08-17T00:56:34.638Z,15.50
2022-08-17T00:59:00.980Z,15.60
2022-08-17T01:00:09.533Z,15.59
2022-08-17T01:01:09.552Z,15.54
2022-08-17T01:02:11.105Z,15.57
2022-08-17T01:03:12.515Z,15.53
2022-08-17T01:04:10.531Z,15.59
2022-08-17T01:05:00.986Z,15.62
2022-08-17T01:06:11.182Z,15.50
2022-08-17T01:08:23.274Z,15.53
2022-08-17T01:09:31.790Z,15.50
2022-08-17T01:14:27.739Z,15.47
2022-08-17T01:15:36.690Z,15.51
2022-08-17T01:18:59.443Z,15.41
2022-08-17T01:21:48.612Z,15.31
2022-08-17T01:23:00.053Z,15.36
2022-08-17T01:25:32.096Z,15.34
2022-08-17T01:29:02.134Z,15.28
2022-08-17T01:34:10.299Z,15.17
2022-08-17T01:35:18.258Z,15.19
2022-08-17T01:38:49.519Z,15.14
2022-08-17T01:41:29.836Z,15.11
2022-08-17T01:43:01.091Z,14.98
2022-08-17T01:43:29.724Z,15.02
2022-08-17T01:46:03.598Z,15.09
2022-08-17T01:51:12.032Z,15.01
2022-08-17T01:52:18.878Z,14.94
2022-08-17T01:53:10.381Z,15.03
2022-08-17T01:54:21.280Z,15.03
2022-08-17T01:55:25.893Z,14.94
2022-08-17T01:56:18.797Z,15.03
2022-08-17T01:57:22.109Z,15.06
2022-08-17T02:00:59.982Z,14.96
2022-08-17T02:03:02.420Z,14.94
2022-08-17T02:04:10.941Z,14.78
2022-08-17T02:06:45.337Z,14.84
2022-08-17T02:12:39.454Z,14.78
2022-08-17T02:19:01.723Z,14.78
2022-08-17T02:21:48.322Z,14.73
2022-08-17T02:22:56.947Z,14.65
2022-08-17T02:23:48.304Z,14.68
2022-08-17T02:24:59.870Z,14.68
2022-08-17T02:28:45.715Z,14.69
2022-08-17T02:30:00.621Z,14.60
2022-08-17T02:31:01.909Z,14.64
2022-08-17T02:34:46.718Z,14.60
2022-08-17T02:37:30.091Z,14.55
2022-08-17T02:38:37.163Z,14.60
2022-08-17T02:39:40.015Z,14.54
2022-08-17T02:40:38.482Z,14.54
2022-08-17T02:43:11.645Z,14.55
2022-08-17T02:44:39.114Z,14.52
2022-08-17T02:45:20.268Z,14.40
2022-08-17T02:48:31.063Z,14.43
2022-08-17T02:53:25.891Z,14.37
2022-08-17T02:55:59.471Z,14.27
2022-08-17T02:58:10.565Z,14.29
2022-08-17T03:03:07.436Z,14.37
2022-08-17T03:04:18.880Z,14.24
2022-08-17T03:05:28.639Z,14.20
2022-08-17T03:06:08.285Z,14.24
2022-08-17T03:09:50.987Z,14.22
2022-08-17T03:10:59.719Z,14.06
2022-08-17T03:13:07.238Z,14.12
2022-08-17T03:14:04.749Z,14.14
2022-08-17T03:22:36.540Z,14.04
2022-08-17T03:23:28.060Z,14.02
2022-08-17T03:24:28.636Z,13.92
2022-08-17T03:29:16.095Z,13.92
2022-08-17T03:30:13.252Z,13.92
2022-08-17T03:31:37.045Z,13.95
2022-08-17T03:32:23.266Z,13.92
2022-08-17T03:35:55.894Z,13.91
2022-08-17T03:37:05.578Z,13.88
2022-08-17T03:39:08.752Z,13.92
2022-08-17T03:40:18.542Z,13.89
2022-08-17T03:43:34.292Z,13.89
2022-08-17T03:44:42.883Z,13.82
2022-08-17T03:47:08.941Z,13.88
2022-08-17T03:48:24.086Z,13.82
2022-08-17T03:49:17.117Z,13.89
2022-08-17T03:50:23.833Z,13.85
2022-08-17T03:51:17.893Z,13.89
2022-08-17T03:52:18.105Z,13.87
2022-08-17T03:53:18.077Z,13.87
2022-08-17T03:54:18.288Z,13.75
2022-08-17T03:55:17.106Z,13.84
2022-08-17T03:56:18.090Z,13.78
2022-08-17T03:57:18.305Z,13.81
2022-08-17T03:58:20.488Z,13.84
2022-08-17T03:59:20.855Z,13.79
2022-08-17T04:00:17.915Z,13.82
2022-08-17T04:01:18.287Z,13.82
2022-08-17T04:02:18.188Z,13.77
2022-08-17T04:03:17.872Z,13.78
2022-08-17T04:04:17.134Z,13.79
2022-08-17T04:05:17.064Z,13.73
2022-08-17T04:06:16.911Z,13.78
2022-08-17T04:09:40.365Z,13.75
2022-08-17T04:12:05.057Z,13.78
2022-08-17T04:13:24.967Z,13.79
2022-08-17T04:14:11.224Z,13.81
2022-08-17T04:15:16.794Z,13.79
2022-08-17T04:17:50.963Z,13.92
2022-08-17T04:18:59.483Z,13.85
2022-08-17T04:19:53.180Z,13.79
2022-08-17T04:20:51.818Z,13.79
2022-08-17T04:21:50.841Z,13.82
2022-08-17T04:23:04.074Z,13.79
2022-08-17T04:24:06.654Z,13.77
2022-08-17T04:25:00.335Z,13.81
2022-08-17T04:26:02.816Z,13.81
2022-08-17T04:27:00.291Z,13.79
2022-08-17T04:28:03.325Z,13.88
2022-08-17T04:29:01.425Z,13.87
2022-08-17T04:30:04.226Z,13.89
2022-08-17T04:31:00.262Z,13.77
2022-08-17T04:32:00.356Z,13.88
2022-08-17T04:33:06.329Z,13.84
2022-08-17T04:35:13.869Z,13.84
2022-08-17T04:36:23.093Z,13.81
2022-08-17T04:39:06.025Z,13.97
2022-08-17T04:42:48.723Z,13.99
2022-08-17T04:46:22.054Z,14.03
2022-08-17T04:48:36.120Z,14.03
2022-08-17T04:49:43.531Z,14.04
2022-08-17T04:50:49.760Z,14.04
2022-08-17T04:52:58.209Z,14.12
2022-08-17T04:54:09.233Z,14.10
2022-08-17T04:55:08.479Z,14.09
2022-08-17T04:56:16.836Z,14.17
2022-08-17T04:57:07.584Z,14.24
2022-08-17T04:58:07.560Z,14.24
2022-08-17T04:59:28.628Z,14.21
2022-08-17T05:00:09.392Z,14.28
2022-08-17T05:01:06.485Z,14.33
2022-08-17T05:02:10.135Z,14.25
2022-08-17T05:07:13.338Z,14.55
2022-08-17T05:08:24.651Z,14.39
2022-08-17T05:09:24.874Z,14.50
2022-08-17T05:10:21.970Z,14.61
2022-08-17T05:11:21.945Z,14.62
2022-08-17T05:12:22.085Z,14.60
2022-08-17T05:13:36.524Z,14.65
2022-08-17T05:14:21.869Z,14.70
2022-08-17T05:17:47.801Z,14.73
2022-08-17T05:18:57.082Z,14.77
2022-08-17T05:19:57.319Z,14.86
2022-08-17T05:20:56.256Z,14.92
2022-08-17T05:21:56.261Z,15.03
2022-08-17T05:22:58.040Z,14.96
2022-08-17T05:23:58.584Z,14.98
2022-08-17T05:24:57.019Z,15.07
2022-08-17T05:25:57.023Z,15.16
2022-08-17T05:28:59.542Z,15.27
2022-08-17T05:29:53.418Z,15.28
2022-08-17T05:30:55.403Z,15.38
2022-08-17T05:31:54.225Z,15.46
2022-08-17T05:32:53.839Z,15.44
2022-08-17T05:33:54.328Z,15.46
2022-08-17T05:34:56.967Z,15.62
2022-08-17T05:35:53.582Z,15.51
2022-08-17T05:41:06.802Z,15.82
2022-08-17T05:42:16.191Z,15.90
2022-08-17T05:43:16.652Z,15.92
2022-08-17T05:44:19.584Z,16.00
2022-08-17T05:45:06.594Z,16.11
2022-08-17T05:46:17.157Z,16.15
2022-08-17T05:49:32.082Z,16.27
2022-08-17T05:50:41.261Z,16.31
2022-08-17T05:51:42.728Z,16.41
2022-08-17T05:52:45.632Z,16.38
2022-08-17T05:53:40.762Z,16.46
2022-08-17T05:54:41.750Z,16.58
2022-08-17T05:58:18.941Z,16.93
2022-08-17T05:59:30.228Z,16.88
2022-08-17T06:00:30.564Z,16.97
2022-08-17T06:01:28.399Z,16.97
2022-08-17T06:02:33.606Z,17.08
2022-08-17T06:03:18.841Z,17.18
2022-08-17T06:05:36.573Z,17.28
2022-08-17T06:06:50.797Z,17.28
2022-08-17T06:07:45.046Z,17.40
2022-08-17T06:08:48.613Z,17.52
2022-08-17T06:09:45.060Z,17.55
2022-08-17T06:14:13.765Z,18.21
2022-08-17T06:15:34.073Z,18.17
2022-08-17T06:16:28.256Z,18.21
2022-08-17T06:17:24.116Z,18.25
2022-08-17T06:18:24.209Z,18.36
2022-08-17T06:19:34.155Z,18.51
2022-08-17T06:20:23.197Z,18.52
2022-08-17T06:21:23.763Z,18.65
2022-08-17T06:22:23.262Z,18.72
2022-08-17T06:24:37.824Z,18.88
2022-08-17T06:25:46.360Z,19.06
2022-08-17T06:26:46.336Z,19.21
2022-08-17T06:27:48.658Z,19.63
2022-08-17T06:30:12.148Z,20.77
2022-08-17T06:31:22.343Z,21.21
2022-08-17T06:32:24.951Z,21.90
2022-08-17T06:33:22.300Z,22.28
2022-08-17T06:34:20.943Z,22.79
2022-08-17T06:35:21.295Z,23.19
2022-08-17T06:36:21.616Z,23.53
2022-08-17T06:37:24.848Z,24.00
2022-08-17T06:39:55.242Z,24.96
2022-08-17T06:41:08.848Z,25.30
2022-08-17T06:42:04.336Z,25.70
2022-08-17T06:45:29.268Z,26.85
2022-08-17T06:46:45.114Z,27.22
2022-08-17T06:47:38.602Z,27.39
2022-08-17T06:48:40.144Z,27.75
2022-08-17T06:49:39.069Z,28.00
2022-08-17T06:50:40.162Z,28.18
2022-08-17T06:51:38.560Z,28.24
2022-08-17T06:52:46.730Z,28.49
2022-08-17T06:53:43.135Z,28.68
2022-08-17T06:54:38.762Z,28.76
2022-08-17T06:55:40.623Z,28.86
2022-08-17T06:56:53.104Z,29.09
2022-08-17T06:57:29.922Z,29.26
2022-08-17T07:04:24.241Z,29.85
2022-08-17T07:05:27.022Z,30.07
2022-08-17T07:06:21.262Z,30.04
2022-08-17T07:07:21.058Z,30.17
2022-08-17T07:12:02.327Z,30.58
2022-08-17T07:13:12.140Z,30.55
2022-08-17T07:14:16.523Z,30.67
2022-08-17T07:17:02.342Z,30.73
2022-08-17T07:18:12.904Z,30.77
2022-08-17T07:19:02.074Z,30.76
2022-08-17T07:20:12.764Z,30.73
2022-08-17T07:24:48.024Z,30.91
2022-08-17T07:26:03.370Z,30.86
2022-08-17T07:26:58.515Z,30.83
2022-08-17T07:27:48.818Z,30.95
2022-08-17T07:29:03.278Z,31.02
2022-08-17T07:29:59.585Z,30.86
2022-08-17T07:31:01.922Z,30.89
2022-08-17T07:31:47.794Z,30.88
2022-08-17T07:32:47.656Z,30.91
2022-08-17T07:33:47.632Z,30.77
2022-08-17T07:34:47.636Z,30.73
2022-08-17T07:35:47.664Z,30.72
2022-08-17T07:36:57.409Z,30.75
2022-08-17T07:37:47.641Z,30.77
2022-08-17T07:38:58.606Z,30.69
2022-08-17T07:39:59.554Z,30.77
2022-08-17T07:42:02.006Z,30.79
2022-08-17T07:43:01.907Z,30.80
2022-08-17T07:44:01.908Z,30.83
2022-08-17T07:45:01.873Z,30.92
2022-08-17T07:46:01.875Z,30.86
2022-08-17T07:47:01.874Z,30.95
2022-08-17T07:48:01.862Z,31.01
2022-08-17T07:49:01.840Z,30.97
2022-08-17T07:50:01.880Z,31.01
2022-08-17T07:51:01.841Z,30.99
2022-08-17T07:52:24.171Z,30.98
2022-08-17T07:53:12.347Z,30.94
2022-08-17T07:54:14.210Z,30.84
2022-08-17T07:55:02.829Z,30.83
2022-08-17T07:56:01.800Z,30.82
2022-08-17T07:57:10.555Z,30.77
2022-08-17T07:59:33.498Z,30.57
2022-08-17T08:00:32.249Z,30.45
2022-08-17T08:01:13.300Z,30.42
2022-08-17T08:02:31.773Z,30.39
2022-08-17T08:03:22.339Z,30.39
2022-08-17T08:04:16.350Z,30.37
2022-08-17T08:05:12.969Z,30.35
2022-08-17T08:06:21.628Z,30.38
2022-08-17T08:07:23.566Z,30.32
2022-08-17T08:08:21.706Z,30.27
2022-08-17T08:09:12.897Z,30.23
2022-08-17T08:10:29.348Z,30.26
2022-08-17T08:11:21.577Z,30.26
2022-08-17T08:12:15.892Z,30.34
2022-08-17T08:13:14.084Z,30.26
2022-08-17T08:14:12.872Z,30.17
2022-08-17T08:15:12.830Z,30.02
2022-08-17T08:16:12.825Z,30.10
2022-08-17T08:17:12.832Z,30.08
2022-08-17T08:18:53.572Z,29.95
2022-08-17T08:19:14.929Z,30.05
2022-08-17T08:20:37.908Z,30.07
2022-08-17T08:21:13.770Z,29.95
2022-08-17T08:22:12.739Z,29.98
2022-08-17T08:23:12.762Z,29.97
2022-08-17T08:24:12.703Z,29.97
2022-08-17T08:25:12.713Z,30.05
2022-08-17T08:26:16.545Z,29.82
2022-08-17T08:27:13.684Z,28.68
2022-08-17T08:28:12.666Z,28.07
2022-08-17T08:29:12.771Z,27.78
2022-08-17T08:30:12.671Z,27.65
2022-08-17T08:31:12.684Z,27.59
2022-08-17T08:32:12.652Z,27.65
2022-08-17T08:33:12.672Z,27.47
2022-08-17T08:35:00.597Z,27.51
2022-08-17T08:35:13.667Z,27.51
2022-08-17T08:36:12.583Z,27.66
2022-08-17T08:37:17.173Z,27.65
2022-08-17T08:38:12.540Z,27.63
2022-08-17T08:39:12.548Z,27.63
2022-08-17T08:40:12.666Z,27.66
2022-08-17T08:41:13.504Z,27.75
2022-08-17T08:42:12.517Z,27.77
2022-08-17T08:43:12.489Z,27.82
2022-08-17T08:44:12.497Z,27.69
2022-08-17T08:45:12.511Z,27.46
2022-08-17T08:46:12.474Z,27.43
2022-08-17T08:47:12.451Z,27.44
2022-08-17T08:48:22.883Z,27.54
2022-08-17T08:49:34.015Z,27.49
2022-08-17T08:50:37.301Z,27.65
2022-08-17T08:51:21.086Z,27.81
2022-08-17T08:52:12.548Z,27.85
2022-08-17T08:53:12.452Z,27.99
2022-08-17T08:54:12.408Z,27.99
2022-08-17T08:55:12.432Z,28.18
2022-08-17T08:56:12.377Z,28.29
2022-08-17T08:57:24.261Z,28.54
2022-08-17T08:58:31.679Z,28.58
2022-08-17T08:59:25.731Z,28.52
2022-08-17T09:00:12.402Z,28.59
2022-08-17T09:01:16.611Z,28.70
2022-08-17T09:02:12.349Z,28.78
2022-08-17T09:03:12.335Z,28.92
2022-08-17T09:04:24.082Z,29.04
2022-08-17T09:05:14.973Z,29.18
2022-08-17T09:06:35.603Z,29.33
2022-08-17T09:07:13.246Z,29.36
2022-08-17T09:08:12.247Z,29.41
2022-08-17T09:09:12.224Z,29.45
2022-08-17T09:10:12.219Z,29.48
2022-08-17T09:11:12.224Z,29.41
2022-08-17T09:12:12.970Z,29.39
2022-08-17T09:13:12.176Z,29.37
2022-08-17T09:14:28.830Z,29.30
2022-08-17T09:15:13.076Z,29.28
2022-08-17T09:16:12.174Z,29.26
2022-08-17T09:17:12.140Z,29.28
2022-08-17T09:19:03.527Z,29.34
2022-08-17T09:19:21.031Z,29.46
2022-08-17T09:22:40.294Z,29.87
2022-08-17T09:23:40.310Z,29.95
2022-08-17T09:24:40.282Z,30.05
2022-08-17T09:25:40.275Z,30.01
2022-08-17T09:26:40.214Z,30.08
2022-08-17T09:27:40.225Z,30.15
2022-08-17T09:28:40.201Z,30.23
2022-08-17T09:29:40.245Z,30.11
2022-08-17T09:30:40.194Z,30.16
2022-08-17T09:31:47.034Z,30.17
2022-08-17T09:32:40.215Z,30.31
2022-08-17T09:33:40.286Z,30.31
2022-08-17T09:34:40.116Z,30.31
2022-08-17T09:35:50.893Z,30.31
2022-08-17T09:36:40.141Z,30.34
2022-08-17T09:37:40.108Z,30.42
2022-08-17T09:38:40.116Z,30.42
2022-08-17T09:39:40.143Z,30.58
2022-08-17T09:40:40.120Z,30.58
2022-08-17T09:41:40.101Z,30.62
2022-08-17T09:42:40.875Z,30.73
2022-08-17T09:43:40.038Z,30.67
2022-08-17T09:44:52.467Z,30.73
2022-08-17T09:45:40.064Z,30.75
2022-08-17T09:46:40.025Z,30.80
2022-08-17T09:47:39.996Z,30.80
2022-08-17T09:48:40.032Z,30.64
2022-08-17T09:49:40.013Z,30.69
2022-08-17T09:51:03.225Z,30.64
2022-08-17T09:51:40.957Z,30.47
2022-08-17T09:52:39.890Z,30.46
2022-08-17T09:53:39.922Z,30.38
2022-08-17T09:54:40.648Z,30.31
2022-08-17T09:55:39.862Z,30.29
2022-08-17T09:56:45.377Z,30.29
2022-08-17T09:57:39.835Z,30.22
2022-08-17T09:58:39.825Z,30.02
2022-08-17T09:59:39.902Z,29.94
2022-08-17T10:00:39.806Z,29.95
2022-08-17T10:01:40.024Z,29.98
2022-08-17T10:02:39.786Z,30.01
2022-08-17T10:03:39.781Z,29.98
2022-08-17T10:04:39.774Z,29.90
2022-08-17T10:05:39.749Z,29.95
2022-08-17T10:06:39.739Z,29.89
2022-08-17T10:07:39.757Z,29.89
2022-08-17T10:08:39.726Z,29.94
2022-08-17T10:09:39.733Z,29.97
2022-08-17T10:10:39.711Z,29.92
2022-08-17T10:11:45.549Z,29.82
2022-08-17T10:12:39.678Z,29.94
2022-08-17T10:14:55.171Z,29.71
2022-08-17T10:15:54.410Z,29.92
2022-08-17T10:16:54.395Z,29.95
2022-08-17T10:17:54.362Z,29.94
2022-08-17T10:18:54.385Z,30.08
2022-08-17T10:19:54.396Z,30.19
2022-08-17T10:20:54.339Z,30.19
2022-08-17T10:22:00.821Z,30.37
2022-08-17T10:22:55.002Z,30.42
2022-08-17T10:23:54.516Z,30.42
2022-08-17T10:25:21.807Z,30.39
2022-08-17T10:25:55.973Z,30.45
2022-08-17T10:26:56.913Z,30.54
2022-08-17T10:28:03.912Z,30.60
2022-08-17T10:28:54.344Z,30.77
2022-08-17T10:29:54.401Z,30.83
2022-08-17T10:31:10.516Z,30.97
2022-08-17T10:31:55.478Z,30.92
2022-08-17T10:32:54.233Z,30.83
2022-08-17T10:33:54.169Z,30.70
2022-08-17T10:34:54.170Z,30.70
2022-08-17T10:35:57.190Z,30.53
2022-08-17T10:36:54.132Z,30.35
2022-08-17T10:37:54.133Z,30.29
2022-08-17T10:38:54.148Z,30.00
2022-08-17T10:41:05.440Z,29.71
2022-08-17T10:42:15.069Z,29.64
2022-08-17T10:43:05.656Z,29.61
2022-08-17T10:44:38.694Z,29.48
2022-08-17T10:45:06.381Z,29.43
2022-08-17T10:46:10.634Z,29.41
2022-08-17T10:47:06.328Z,29.39
2022-08-17T10:48:06.945Z,29.28
2022-08-17T10:49:05.259Z,29.06
2022-08-17T10:50:05.269Z,29.05
2022-08-17T10:51:05.229Z,28.96
2022-08-17T10:52:05.229Z,28.86
2022-08-17T10:53:05.274Z,28.93
2022-08-17T10:54:05.203Z,29.05
2022-08-17T10:55:05.193Z,29.16
2022-08-17T10:56:05.212Z,29.28
2022-08-17T10:57:05.198Z,29.41
2022-08-17T10:58:05.165Z,29.49
2022-08-17T10:59:05.194Z,29.64
2022-08-17T11:00:05.155Z,29.65
2022-08-17T11:01:05.186Z,29.73
2022-08-17T11:02:05.111Z,29.68
2022-08-17T11:03:05.106Z,29.65
2022-08-17T11:04:05.100Z,29.61
2022-08-17T11:05:05.120Z,29.55
2022-08-17T11:06:05.080Z,29.41
2022-08-17T11:07:05.085Z,29.28
2022-08-17T11:08:05.056Z,29.26
2022-08-17T11:09:05.063Z,29.19
2022-08-17T11:10:05.037Z,29.08
2022-08-17T11:11:05.041Z,28.89
2022-08-17T11:12:05.025Z,28.88
2022-08-17T11:13:05.709Z,28.88
2022-08-17T11:14:04.987Z,28.98
2022-08-17T11:15:04.975Z,29.23
2022-08-17T11:16:08.429Z,29.33
2022-08-17T11:17:05.010Z,29.43
2022-08-17T11:18:04.944Z,29.52
2022-08-17T11:19:04.948Z,29.58
2022-08-17T11:20:04.932Z,29.61
2022-08-17T11:21:04.921Z,29.74
2022-08-17T11:22:04.904Z,29.90
2022-08-17T11:23:04.906Z,29.92
2022-08-17T11:24:05.018Z,30.01
2022-08-17T11:25:04.866Z,29.97
2022-08-17T11:26:04.856Z,29.92
2022-08-17T11:27:04.847Z,30.00
2022-08-17T11:28:04.867Z,29.94
2022-08-17T11:29:04.833Z,29.90
2022-08-17T11:30:04.835Z,29.87
2022-08-17T11:31:04.836Z,29.71
2022-08-17T11:32:04.787Z,29.73
2022-08-17T11:33:04.806Z,29.67
2022-08-17T11:34:04.772Z,29.83
2022-08-17T11:35:04.762Z,29.92
2022-08-17T11:36:04.762Z,30.05
2022-08-17T11:37:04.776Z,30.17
2022-08-17T11:38:04.779Z,30.39
2022-08-17T11:39:04.717Z,30.49
2022-08-17T11:40:04.807Z,30.76
2022-08-17T11:41:04.693Z,30.75
2022-08-17T11:42:04.685Z,30.98
2022-08-17T11:43:04.724Z,31.09
2022-08-17T11:44:04.713Z,31.07
2022-08-17T11:45:04.679Z,30.97
2022-08-17T11:46:04.666Z,31.01
2022-08-17T11:47:04.634Z,30.98
2022-08-17T11:49:05.642Z,30.83
2022-08-17T11:50:04.634Z,30.83
2022-08-17T11:51:04.596Z,30.77
2022-08-17T11:52:04.574Z,30.73
2022-08-17T11:53:04.590Z,30.51
2022-08-17T11:54:31.233Z,30.35
2022-08-17T11:55:31.916Z,30.29
2022-08-17T11:56:05.541Z,30.20
2022-08-17T11:57:04.533Z,30.04
2022-08-17T11:58:04.535Z,29.95
2022-08-17T11:59:04.507Z,29.85
2022-08-17T12:00:04.498Z,29.86
2022-08-17T12:01:06.013Z,29.70
2022-08-17T12:02:04.486Z,29.65
2022-08-17T12:03:04.534Z,29.60
2022-08-17T12:04:04.502Z,29.39
2022-08-17T12:05:04.450Z,29.42
2022-08-17T12:06:04.438Z,29.41
2022-08-17T12:07:04.424Z,29.33
2022-08-17T12:08:04.440Z,29.43
2022-08-17T12:09:04.419Z,29.57
2022-08-17T12:10:04.388Z,29.71
2022-08-17T12:11:04.387Z,29.92
2022-08-17T12:12:12.932Z,30.11
2022-08-17T12:13:04.361Z,30.27
2022-08-17T12:14:04.386Z,30.47
2022-08-17T12:15:12.307Z,30.70
2022-08-17T12:16:05.327Z,30.70
2022-08-17T12:17:04.335Z,30.98
2022-08-17T12:18:04.313Z,30.99
2022-08-17T12:19:04.299Z,31.06
2022-08-17T12:20:04.307Z,31.12
2022-08-17T12:21:04.272Z,31.16
2022-08-17T12:22:04.297Z,31.28
2022-08-17T12:23:04.256Z,31.34
2022-08-17T12:24:05.105Z,31.35
2022-08-17T12:25:04.244Z,31.35
2022-08-17T12:26:04.231Z,31.34
2022-08-17T12:27:04.292Z,31.26
2022-08-17T12:28:06.523Z,31.17
2022-08-17T12:29:04.207Z,31.17
2022-08-17T12:30:04.193Z,31.26
2022-08-17T12:31:04.180Z,31.17
2022-08-17T12:32:04.158Z,31.14
2022-08-17T12:33:04.151Z,31.07
2022-08-17T12:34:04.151Z,30.99
2022-08-17T12:35:04.163Z,30.54
2022-08-17T12:36:04.129Z,30.49
2022-08-17T12:37:04.118Z,30.35
2022-08-17T12:38:04.098Z,30.32
2022-08-17T12:39:14.042Z,30.26
2022-08-17T12:40:04.125Z,30.22
2022-08-17T12:41:04.081Z,30.22
2022-08-17T12:42:04.063Z,30.17
2022-08-17T12:43:04.040Z,30.05
2022-08-17T12:44:04.030Z,30.11
2022-08-17T12:45:04.017Z,30.13
2022-08-17T12:46:13.352Z,30.05
2022-08-17T12:47:05.059Z,30.07
2022-08-17T12:48:03.990Z,30.00
2022-08-17T12:49:03.998Z,30.11
2022-08-17T12:50:03.981Z,30.04
2022-08-17T12:51:03.956Z,30.02
2022-08-17T12:52:03.966Z,29.95
2022-08-17T12:53:03.979Z,29.98
2022-08-17T12:54:03.977Z,29.95
2022-08-17T12:55:03.914Z,29.92
2022-08-17T12:56:03.918Z,29.94
2022-08-17T12:57:03.925Z,29.89
2022-08-17T12:58:03.889Z,29.92
2022-08-17T12:59:03.881Z,29.87
2022-08-17T13:00:03.897Z,29.80
2022-08-17T13:01:03.856Z,29.89
2022-08-17T13:02:03.942Z,29.86
2022-08-17T13:03:03.844Z,29.83
2022-08-17T13:04:03.817Z,29.68
2022-08-17T13:05:03.809Z,29.79
2022-08-17T13:06:03.822Z,29.78
2022-08-17T13:07:03.787Z,29.76
2022-08-17T13:08:03.800Z,29.74
2022-08-17T13:09:03.774Z,29.76
2022-08-17T13:10:03.855Z,29.71
2022-08-17T13:11:03.743Z,29.94
2022-08-17T13:12:05.024Z,30.05
2022-08-17T13:13:03.777Z,30.17
2022-08-17T13:14:03.750Z,30.34
2022-08-17T13:15:03.694Z,30.58
2022-08-17T13:16:03.696Z,30.69
2022-08-17T13:17:03.754Z,30.79
2022-08-17T13:18:03.688Z,30.82
2022-08-17T13:19:03.684Z,30.97
2022-08-17T13:20:03.716Z,31.09
2022-08-17T13:21:03.690Z,31.29
2022-08-17T13:22:04.163Z,31.47
2022-08-17T13:23:04.379Z,31.72
2022-08-17T13:24:03.609Z,31.80
2022-08-17T13:25:03.620Z,32.03
2022-08-17T13:26:03.613Z,32.14
2022-08-17T13:27:08.173Z,32.15
2022-08-17T13:28:04.600Z,32.28
2022-08-17T13:29:03.554Z,32.38
2022-08-17T13:30:03.569Z,32.41
2022-08-17T13:31:03.558Z,32.33
2022-08-17T13:32:04.685Z,32.52
2022-08-17T13:33:04.931Z,32.59
2022-08-17T13:34:03.498Z,32.63
2022-08-17T13:35:12.031Z,32.82
2022-08-17T13:36:03.492Z,32.78
2022-08-17T13:37:03.497Z,32.93
2022-08-17T13:38:03.508Z,32.84
2022-08-17T13:39:03.454Z,32.97
2022-08-17T13:40:03.579Z,33.03
2022-08-17T13:41:03.432Z,33.16
2022-08-17T13:42:03.425Z,33.29
2022-08-17T13:43:03.432Z,33.39
2022-08-17T13:44:03.418Z,33.56
2022-08-17T13:45:32.168Z,33.60
2022-08-17T13:46:04.416Z,33.61
2022-08-17T13:47:03.387Z,33.79
2022-08-17T13:48:03.355Z,33.93
2022-08-17T13:49:03.365Z,33.94
2022-08-17T13:50:03.340Z,33.95
2022-08-17T13:51:03.357Z,33.91
2022-08-17T13:52:03.326Z,33.98
2022-08-17T13:53:03.324Z,33.98
2022-08-17T13:54:03.295Z,33.91
2022-08-17T13:55:03.283Z,33.76
2022-08-17T13:56:03.273Z,33.72
2022-08-17T13:57:03.286Z,33.81
2022-08-17T13:58:05.016Z,33.94
2022-08-17T13:59:03.286Z,33.94
2022-08-17T14:00:03.243Z,34.06
2022-08-17T14:01:03.260Z,34.15
2022-08-17T14:02:04.294Z,34.27
2022-08-17T14:03:03.266Z,34.37
2022-08-17T14:04:03.192Z,34.47
2022-08-17T14:05:06.186Z,34.58
2022-08-17T14:06:03.169Z,34.52
2022-08-17T14:07:03.163Z,34.64
2022-08-17T14:08:06.228Z,34.64
2022-08-17T14:09:03.186Z,34.59
2022-08-17T14:10:03.154Z,34.56
2022-08-17T14:11:03.123Z,34.52
2022-08-17T14:12:03.156Z,34.59
2022-08-17T14:13:03.117Z,34.59
2022-08-17T14:14:03.099Z,34.44
2022-08-17T14:15:03.104Z,34.42
2022-08-17T14:16:03.205Z,34.24
2022-08-17T14:17:03.118Z,34.15
2022-08-17T14:18:03.051Z,34.03
2022-08-17T14:19:03.035Z,34.05
2022-08-17T14:20:03.040Z,34.09
2022-08-17T14:21:03.030Z,34.13
2022-08-17T14:22:03.054Z,34.24
2022-08-17T14:23:03.015Z,34.10
2022-08-17T14:24:03.028Z,34.09
2022-08-17T14:25:02.999Z,33.97
2022-08-17T14:26:02.966Z,33.84
2022-08-17T14:27:02.952Z,33.75
2022-08-17T14:28:02.963Z,33.81
2022-08-17T14:29:02.938Z,33.72
2022-08-17T14:30:02.938Z,33.90
2022-08-17T14:31:02.917Z,33.87
2022-08-17T14:32:02.969Z,33.97
2022-08-17T14:33:02.921Z,33.84
2022-08-17T14:34:02.904Z,33.94
2022-08-17T14:35:02.902Z,33.95
2022-08-17T14:36:02.927Z,33.95
2022-08-17T14:37:02.846Z,34.02
2022-08-17T14:38:02.839Z,34.06
2022-08-17T14:39:02.920Z,33.56
2022-08-17T14:40:02.964Z,33.31
2022-08-17T14:41:02.807Z,33.22
2022-08-17T14:42:02.878Z,33.06
2022-08-17T14:43:02.797Z,33.15
2022-08-17T14:44:02.802Z,33.23
2022-08-17T14:45:02.771Z,33.29
2022-08-17T14:46:02.758Z,33.44
2022-08-17T14:47:02.746Z,33.49
2022-08-17T14:48:03.708Z,33.61
2022-08-17T14:49:02.726Z,33.61
2022-08-17T14:50:02.730Z,33.34
2022-08-17T14:51:02.708Z,33.23
2022-08-17T14:52:02.755Z,33.26
2022-08-17T14:53:02.713Z,33.01
2022-08-17T14:54:02.696Z,32.99
2022-08-17T14:55:02.668Z,33.04
2022-08-17T14:56:02.674Z,33.14
2022-08-17T14:57:23.029Z,33.09
2022-08-17T14:58:03.680Z,33.11
2022-08-17T14:59:02.636Z,33.12
2022-08-17T15:00:02.622Z,33.18
2022-08-17T15:01:02.652Z,33.39
2022-08-17T15:02:02.596Z,33.45
2022-08-17T15:03:02.604Z,33.56
2022-08-17T15:04:02.611Z,33.66
2022-08-17T15:05:02.622Z,33.76
2022-08-17T15:06:02.561Z,33.72
2022-08-17T15:07:02.586Z,33.97
2022-08-17T15:08:02.530Z,34.08
2022-08-17T15:09:02.539Z,34.00
2022-08-17T15:10:02.886Z,34.08
2022-08-17T15:11:02.519Z,34.10
2022-08-17T15:12:02.525Z,33.98
2022-08-17T15:13:02.501Z,34.09
2022-08-17T15:14:02.489Z,34.15
2022-08-17T15:15:04.380Z,34.15
2022-08-17T15:16:02.478Z,34.17
2022-08-17T15:17:02.440Z,34.22
2022-08-17T15:18:02.962Z,34.27
2022-08-17T15:19:02.414Z,34.27
2022-08-17T15:20:02.434Z,34.31
2022-08-17T15:21:02.471Z,34.22
2022-08-17T15:22:02.393Z,34.21
2022-08-17T15:23:02.373Z,34.05
2022-08-17T15:24:02.385Z,33.98
2022-08-17T15:25:02.361Z,33.91
2022-08-17T15:26:02.394Z,33.94
2022-08-17T15:27:03.340Z,34.03
2022-08-17T15:28:02.354Z,34.00
2022-08-17T15:29:02.378Z,34.06
2022-08-17T15:30:02.314Z,33.93
2022-08-17T15:31:02.316Z,33.95
2022-08-17T15:32:02.288Z,34.05
2022-08-17T15:33:02.276Z,34.09
2022-08-17T15:34:02.256Z,34.08
2022-08-17T15:35:02.339Z,34.08
2022-08-17T15:36:02.270Z,33.86
2022-08-17T15:37:02.235Z,33.16
2022-08-17T15:38:09.739Z,32.94
2022-08-17T15:39:02.211Z,32.57
2022-08-17T15:40:02.277Z,32.62
2022-08-17T15:41:02.266Z,32.33
2022-08-17T15:42:02.213Z,32.43
2022-08-17T15:43:02.171Z,32.48
2022-08-17T15:44:03.157Z,32.59
2022-08-17T15:45:02.763Z,32.72
2022-08-17T15:46:02.205Z,32.72
2022-08-17T15:47:02.136Z,32.84
2022-08-17T15:48:02.128Z,32.70
2022-08-17T15:49:02.129Z,32.69
2022-08-17T15:50:02.202Z,32.70
2022-08-17T15:51:02.162Z,32.74
2022-08-17T15:52:02.095Z,32.88
2022-08-17T15:53:02.105Z,32.92
2022-08-17T15:54:04.594Z,33.03
2022-08-17T15:55:03.090Z,33.11
2022-08-17T15:56:02.060Z,33.09
2022-08-17T15:57:02.049Z,32.89
2022-08-17T15:58:02.014Z,32.87
2022-08-17T15:59:02.028Z,32.75
2022-08-17T16:00:02.098Z,32.56
2022-08-17T16:01:17.046Z,32.26
2022-08-17T16:03:14.514Z,32.25
2022-08-17T16:03:45.924Z,32.33
2022-08-17T16:04:06.692Z,32.32
2022-08-17T16:05:02.067Z,32.37
2022-08-17T16:06:01.945Z,32.30